Ingeniero Juan Guillermo Villasana Airport

Jump to: basic info | weather | frequencies | runways | comments

Related pages: nearby airports | nearby navaids | notams | map

Basic information (top)

Codes: MMPC
Location: lon 20.077400, lat -98.782501, elev 7,600 ft / 2,316 m msl
Status: small_airport

Weather (top)

Current conditions for Licenciado Benito Juarez International Airport 42nm (77km) SSW (rec'd 2014/09/01 18:13Z):

MMMX 011813Z SPECI 00000KT 6SM SCT020 BKN200 23/12 A3027 NOSIG RMK 8/108 HZY

Airport forecast for Licenciado Benito Juarez International Airport 42nm (77km) SSW (rec'd 2014/09/01 18:56Z):

TAF MMMX 011656Z 0118/0224 09006KT 6SM HZ SCT025 BKN220 TX25/0122Z TN14/0213Z 
     FM012100 07012KT P6SM VC SH BKN025CB BKN080 
      TEMPO 0122/0202 5SM TSRA 
     FM020300 00000KT P6SM SCT025 BKN080 
     FM021200 07005KT 5SM HZ BKN020 BKN080 
     FM022000 24012KT P6SM VC SH BKN025CB BKN080 PROB40 0221/0224 5SM TSRA

Frequencies (top)

Verify before use: may be inaccurate or out of date.

AFIS: 122.9 MHz (AFIS)

Runways (top)

03/21: 6,825 x 85 ft (2,080 x 26 m) — paved — not lighted — threshold 03 displaced 656 ft (200 m) — threshold 21 displaced 865 ft (264 m)

Latest comments (top)

No comments yet for Ingeniero Juan Guillermo Villasana Airport

More... (top)

See also NOTAMs and nearby airports and navaids, or visit the Ingeniero Juan Guillermo Villasana Airport page at the main OurAirports website..